sensor_id;sensor_type;location;lat;lon;timestamp;P1;durP1;ratioP1;P2;durP2;ratioP2
9080;SDS011;13509;50.760;6.080;2024-01-15T00:00:28;31.27;;;12.67;;
9080;SDS011;13509;50.760;6.080;2024-01-15T00:02:58;35.70;;;13.13;;
9080;SDS011;13509;50.760;6.080;2024-01-15T00:05:26;45.33;;;14.70;;
9080;SDS011;13509;50.760;6.080;2024-01-15T00:07:54;38.77;;;14.80;;
9080;SDS011;13509;50.760;6.080;2024-01-15T00:10:23;28.70;;;13.30;;
9080;SDS011;13509;50.760;6.080;2024-01-15T00:12:51;28.83;;;12.90;;
9080;SDS011;13509;50.760;6.080;2024-01-15T00:15:19;33.10;;;13.17;;
9080;SDS011;13509;50.760;6.080;2024-01-15T00:17:48;42.23;;;13.77;;
9080;SDS011;13509;50.760;6.080;2024-01-15T00:20:18;35.47;;;13.67;;
9080;SDS011;13509;50.760;6.080;2024-01-15T00:22:46;33.50;;;14.03;;
9080;SDS011;13509;50.760;6.080;2024-01-15T00:25:14;31.77;;;13.07;;
9080;SDS011;13509;50.760;6.080;2024-01-15T00:27:44;31.70;;;12.83;;
9080;SDS011;13509;50.760;6.080;2024-01-15T00:30:12;39.10;;;14.27;;
9080;SDS011;13509;50.760;6.080;2024-01-15T00:32:41;31.47;;;13.27;;
9080;SDS011;13509;50.760;6.080;2024-01-15T00:35:10;30.13;;;13.27;;
9080;SDS011;13509;50.760;6.080;2024-01-15T00:37:39;29.33;;;12.97;;
9080;SDS011;13509;50.760;6.080;2024-01-15T00:40:08;33.47;;;13.33;;
9080;SDS011;13509;50.760;6.080;2024-01-15T00:42:37;33.40;;;13.73;;
9080;SDS011;13509;50.760;6.080;2024-01-15T00:45:05;34.53;;;13.33;;
9080;SDS011;13509;50.760;6.080;2024-01-15T00:47:34;31.63;;;12.50;;
9080;SDS011;13509;50.760;6.080;2024-01-15T00:50:03;31.33;;;12.83;;
9080;SDS011;13509;50.760;6.080;2024-01-15T00:52:31;29.27;;;12.13;;
9080;SDS011;13509;50.760;6.080;2024-01-15T00:55:01;31.90;;;12.60;;
9080;SDS011;13509;50.760;6.080;2024-01-15T00:57:29;31.43;;;12.63;;
9080;SDS011;13509;50.760;6.080;2024-01-15T01:00:04;33.73;;;12.37;;
9080;SDS011;13509;50.760;6.080;2024-01-15T01:02:33;36.33;;;13.80;;
9080;SDS011;13509;50.760;6.080;2024-01-15T01:05:01;35.60;;;13.73;;
9080;SDS011;13509;50.760;6.080;2024-01-15T01:07:31;37.17;;;14.30;;
9080;SDS011;13509;50.760;6.080;2024-01-15T01:09:59;31.43;;;13.57;;
9080;SDS011;13509;50.760;6.080;2024-01-15T01:12:29;30.33;;;13.40;;
9080;SDS011;13509;50.760;6.080;2024-01-15T01:14:58;28.60;;;13.27;;
9080;SDS011;13509;50.760;6.080;2024-01-15T01:17:26;30.17;;;12.27;;
9080;SDS011;13509;50.760;6.080;2024-01-15T01:19:55;35.93;;;14.90;;
9080;SDS011;13509;50.760;6.080;2024-01-15T01:22:23;38.40;;;14.10;;
9080;SDS011;13509;50.760;6.080;2024-01-15T01:24:52;33.93;;;13.97;;
9080;SDS011;13509;50.760;6.080;2024-01-15T01:27:20;31.93;;;14.33;;
9080;SDS011;13509;50.760;6.080;2024-01-15T01:29:50;35.20;;;13.13;;
9080;SDS011;13509;50.760;6.080;2024-01-15T01:32:18;32.67;;;14.67;;
9080;SDS011;13509;50.760;6.080;2024-01-15T01:34:46;39.73;;;15.33;;
9080;SDS011;13509;50.760;6.080;2024-01-15T01:37:14;33.67;;;14.50;;
9080;SDS011;13509;50.760;6.080;2024-01-15T01:39:43;30.87;;;14.40;;
9080;SDS011;13509;50.760;6.080;2024-01-15T01:42:11;35.17;;;14.33;;
9080;SDS011;13509;50.760;6.080;2024-01-15T01:44:40;37.37;;;15.47;;
9080;SDS011;13509;50.760;6.080;2024-01-15T01:47:13;33.43;;;14.97;;
9080;SDS011;13509;50.760;6.080;2024-01-15T01:49:42;35.77;;;14.27;;
9080;SDS011;13509;50.760;6.080;2024-01-15T01:52:11;41.33;;;16.07;;
9080;SDS011;13509;50.760;6.080;2024-01-15T01:54:39;35.20;;;14.83;;
9080;SDS011;13509;50.760;6.080;2024-01-15T01:57:08;33.10;;;14.80;;
9080;SDS011;13509;50.760;6.080;2024-01-15T01:59:37;41.70;;;15.63;;
9080;SDS011;13509;50.760;6.080;2024-01-15T02:02:06;42.20;;;16.17;;
9080;SDS011;13509;50.760;6.080;2024-01-15T02:04:36;39.97;;;15.93;;
9080;SDS011;13509;50.760;6.080;2024-01-15T02:07:04;40.30;;;15.90;;
9080;SDS011;13509;50.760;6.080;2024-01-15T02:09:33;36.33;;;15.60;;
9080;SDS011;13509;50.760;6.080;2024-01-15T02:12:01;35.70;;;16.37;;
9080;SDS011;13509;50.760;6.080;2024-01-15T02:14:29;38.13;;;16.27;;
9080;SDS011;13509;50.760;6.080;2024-01-15T02:16:58;37.90;;;16.90;;
9080;SDS011;13509;50.760;6.080;2024-01-15T02:19:26;42.70;;;15.97;;
9080;SDS011;13509;50.760;6.080;2024-01-15T02:21:56;39.07;;;17.70;;
9080;SDS011;13509;50.760;6.080;2024-01-15T02:24:26;35.83;;;15.77;;
9080;SDS011;13509;50.760;6.080;2024-01-15T02:26:57;43.20;;;17.00;;
9080;SDS011;13509;50.760;6.080;2024-01-15T02:29:25;33.90;;;16.23;;
9080;SDS011;13509;50.760;6.080;2024-01-15T02:31:54;35.47;;;16.40;;
9080;SDS011;13509;50.760;6.080;2024-01-15T02:34:22;38.07;;;17.43;;
9080;SDS011;13509;50.760;6.080;2024-01-15T02:36:51;41.63;;;17.17;;
9080;SDS011;13509;50.760;6.080;2024-01-15T02:39:19;38.83;;;16.93;;
9080;SDS011;13509;50.760;6.080;2024-01-15T02:41:49;35.37;;;16.30;;
9080;SDS011;13509;50.760;6.080;2024-01-15T02:44:17;46.13;;;18.43;;
9080;SDS011;13509;50.760;6.080;2024-01-15T02:46:45;38.37;;;17.33;;
9080;SDS011;13509;50.760;6.080;2024-01-15T02:49:14;38.20;;;16.07;;
9080;SDS011;13509;50.760;6.080;2024-01-15T02:51:42;38.17;;;16.00;;
9080;SDS011;13509;50.760;6.080;2024-01-15T02:54:11;36.80;;;15.97;;
9080;SDS011;13509;50.760;6.080;2024-01-15T02:56:39;35.13;;;16.17;;
9080;SDS011;13509;50.760;6.080;2024-01-15T02:59:09;38.40;;;16.90;;
9080;SDS011;13509;50.760;6.080;2024-01-15T03:01:37;30.07;;;15.40;;
9080;SDS011;13509;50.760;6.080;2024-01-15T03:04:05;33.50;;;16.07;;
9080;SDS011;13509;50.760;6.080;2024-01-15T03:06:34;33.80;;;15.70;;
9080;SDS011;13509;50.760;6.080;2024-01-15T03:09:02;33.63;;;15.13;;
9080;SDS011;13509;50.760;6.080;2024-01-15T03:11:36;25.30;;;13.80;;
9080;SDS011;13509;50.760;6.080;2024-01-15T03:14:05;29.50;;;13.23;;
9080;SDS011;13509;50.760;6.080;2024-01-15T03:16:35;25.63;;;13.47;;
9080;SDS011;13509;50.760;6.080;2024-01-15T03:19:03;23.97;;;11.93;;
9080;SDS011;13509;50.760;6.080;2024-01-15T03:21:31;27.97;;;13.37;;
9080;SDS011;13509;50.760;6.080;2024-01-15T03:24:00;28.20;;;14.10;;
9080;SDS011;13509;50.760;6.080;2024-01-15T03:26:34;33.80;;;13.73;;
9080;SDS011;13509;50.760;6.080;2024-01-15T03:29:08;32.30;;;13.63;;
9080;SDS011;13509;50.760;6.080;2024-01-15T03:31:46;34.60;;;14.23;;
9080;SDS011;13509;50.760;6.080;2024-01-15T03:34:14;27.77;;;13.80;;
9080;SDS011;13509;50.760;6.080;2024-01-15T03:36:43;29.40;;;15.17;;
9080;SDS011;13509;50.760;6.080;2024-01-15T03:39:11;27.60;;;13.77;;
9080;SDS011;13509;50.760;6.080;2024-01-15T03:41:47;33.90;;;15.50;;
9080;SDS011;13509;50.760;6.080;2024-01-15T03:44:20;32.43;;;15.13;;
9080;SDS011;13509;50.760;6.080;2024-01-15T03:47:07;30.10;;;14.63;;
9080;SDS011;13509;50.760;6.080;2024-01-15T03:49:36;32.03;;;13.77;;
9080;SDS011;13509;50.760;6.080;2024-01-15T03:52:04;26.87;;;13.20;;
9080;SDS011;13509;50.760;6.080;2024-01-15T03:54:33;31.33;;;13.77;;
9080;SDS011;13509;50.760;6.080;2024-01-15T03:57:01;32.67;;;14.73;;
9080;SDS011;13509;50.760;6.080;2024-01-15T03:59:29;30.40;;;14.43;;
9080;SDS011;13509;50.760;6.080;2024-01-15T04:01:58;31.03;;;14.37;;
9080;SDS011;13509;50.760;6.080;2024-01-15T04:04:27;35.77;;;14.53;;
9080;SDS011;13509;50.760;6.080;2024-01-15T04:06:56;30.93;;;14.70;;
9080;SDS011;13509;50.760;6.080;2024-01-15T04:09:24;33.83;;;15.13;;
9080;SDS011;13509;50.760;6.080;2024-01-15T04:11:53;34.77;;;17.20;;
9080;SDS011;13509;50.760;6.080;2024-01-15T04:14:21;41.13;;;16.90;;
9080;SDS011;13509;50.760;6.080;2024-01-15T04:16:49;34.67;;;16.40;;
9080;SDS011;13509;50.760;6.080;2024-01-15T04:19:17;36.47;;;16.10;;
9080;SDS011;13509;50.760;6.080;2024-01-15T04:21:47;33.63;;;14.87;;
9080;SDS011;13509;50.760;6.080;2024-01-15T04:24:25;39.27;;;16.93;;
9080;SDS011;13509;50.760;6.080;2024-01-15T04:26:55;31.83;;;15.23;;
9080;SDS011;13509;50.760;6.080;2024-01-15T04:29:23;34.53;;;16.23;;
9080;SDS011;13509;50.760;6.080;2024-01-15T04:31:52;35.10;;;15.27;;
9080;SDS011;13509;50.760;6.080;2024-01-15T04:34:20;32.07;;;15.77;;
9080;SDS011;13509;50.760;6.080;2024-01-15T04:36:50;31.10;;;15.33;;
9080;SDS011;13509;50.760;6.080;2024-01-15T04:39:19;29.77;;;14.80;;
9080;SDS011;13509;50.760;6.080;2024-01-15T04:41:47;33.20;;;15.13;;
9080;SDS011;13509;50.760;6.080;2024-01-15T04:44:15;30.43;;;13.93;;
9080;SDS011;13509;50.760;6.080;2024-01-15T04:46:43;32.70;;;15.43;;
9080;SDS011;13509;50.760;6.080;2024-01-15T04:49:12;36.00;;;15.97;;
9080;SDS011;13509;50.760;6.080;2024-01-15T04:51:40;34.90;;;15.33;;
9080;SDS011;13509;50.760;6.080;2024-01-15T04:54:10;31.33;;;15.33;;
9080;SDS011;13509;50.760;6.080;2024-01-15T04:56:38;31.00;;;15.53;;
9080;SDS011;13509;50.760;6.080;2024-01-15T04:59:07;32.33;;;17.73;;
9080;SDS011;13509;50.760;6.080;2024-01-15T05:01:35;37.37;;;16.77;;
9080;SDS011;13509;50.760;6.080;2024-01-15T05:04:03;35.17;;;16.97;;
9080;SDS011;13509;50.760;6.080;2024-01-15T05:06:32;33.40;;;16.50;;
9080;SDS011;13509;50.760;6.080;2024-01-15T05:09:00;36.10;;;15.90;;
9080;SDS011;13509;50.760;6.080;2024-01-15T05:11:30;25.53;;;14.37;;
9080;SDS011;13509;50.760;6.080;2024-01-15T05:13:58;28.70;;;13.80;;
9080;SDS011;13509;50.760;6.080;2024-01-15T05:16:27;27.00;;;14.60;;
9080;SDS011;13509;50.760;6.080;2024-01-15T05:18:55;26.40;;;13.47;;
9080;SDS011;13509;50.760;6.080;2024-01-15T05:21:23;23.60;;;13.47;;
9080;SDS011;13509;50.760;6.080;2024-01-15T05:23:52;27.10;;;13.73;;
9080;SDS011;13509;50.760;6.080;2024-01-15T05:26:20;24.33;;;12.70;;
9080;SDS011;13509;50.760;6.080;2024-01-15T05:28:50;32.97;;;14.23;;
9080;SDS011;13509;50.760;6.080;2024-01-15T05:31:18;29.13;;;13.27;;
9080;SDS011;13509;50.760;6.080;2024-01-15T05:33:46;25.80;;;12.70;;
9080;SDS011;13509;50.760;6.080;2024-01-15T05:36:15;26.73;;;13.03;;
9080;SDS011;13509;50.760;6.080;2024-01-15T05:38:43;25.83;;;13.07;;
9080;SDS011;13509;50.760;6.080;2024-01-15T05:41:11;28.27;;;14.43;;
9080;SDS011;13509;50.760;6.080;2024-01-15T05:43:40;26.50;;;12.77;;
9080;SDS011;13509;50.760;6.080;2024-01-15T05:46:09;29.00;;;14.10;;
9080;SDS011;13509;50.760;6.080;2024-01-15T05:48:38;25.40;;;13.27;;
9080;SDS011;13509;50.760;6.080;2024-01-15T05:51:06;27.53;;;13.53;;
9080;SDS011;13509;50.760;6.080;2024-01-15T05:53:35;29.00;;;15.67;;
9080;SDS011;13509;50.760;6.080;2024-01-15T05:56:06;29.17;;;15.00;;
9080;SDS011;13509;50.760;6.080;2024-01-15T05:58:34;34.43;;;15.50;;
9080;SDS011;13509;50.760;6.080;2024-01-15T06:01:03;30.63;;;15.37;;
9080;SDS011;13509;50.760;6.080;2024-01-15T06:03:33;31.73;;;15.23;;
9080;SDS011;13509;50.760;6.080;2024-01-15T06:06:01;32.13;;;15.50;;
9080;SDS011;13509;50.760;6.080;2024-01-15T06:08:29;27.60;;;15.03;;
9080;SDS011;13509;50.760;6.080;2024-01-15T06:10:58;35.60;;;14.97;;
9080;SDS011;13509;50.760;6.080;2024-01-15T06:13:27;26.30;;;13.53;;
9080;SDS011;13509;50.760;6.080;2024-01-15T06:15:56;34.60;;;16.23;;
9080;SDS011;13509;50.760;6.080;2024-01-15T06:18:24;29.70;;;14.87;;
9080;SDS011;13509;50.760;6.080;2024-01-15T06:20:54;28.60;;;14.53;;
9080;SDS011;13509;50.760;6.080;2024-01-15T06:23:42;28.37;;;13.43;;
9080;SDS011;13509;50.760;6.080;2024-01-15T06:26:12;27.37;;;14.37;;
9080;SDS011;13509;50.760;6.080;2024-01-15T06:28:40;29.57;;;14.83;;
9080;SDS011;13509;50.760;6.080;2024-01-15T06:31:08;26.53;;;13.17;;
9080;SDS011;13509;50.760;6.080;2024-01-15T06:33:37;31.43;;;14.27;;
9080;SDS011;13509;50.760;6.080;2024-01-15T06:36:07;29.93;;;15.27;;
9080;SDS011;13509;50.760;6.080;2024-01-15T06:38:37;34.00;;;15.67;;
9080;SDS011;13509;50.760;6.080;2024-01-15T06:41:05;34.43;;;15.40;;
9080;SDS011;13509;50.760;6.080;2024-01-15T06:43:33;31.80;;;15.47;;
9080;SDS011;13509;50.760;6.080;2024-01-15T06:46:02;30.13;;;14.47;;
9080;SDS011;13509;50.760;6.080;2024-01-15T06:48:33;35.37;;;16.13;;
9080;SDS011;13509;50.760;6.080;2024-01-15T06:51:02;32.27;;;14.33;;
9080;SDS011;13509;50.760;6.080;2024-01-15T06:53:32;30.30;;;14.63;;
9080;SDS011;13509;50.760;6.080;2024-01-15T06:56:00;30.70;;;14.60;;
9080;SDS011;13509;50.760;6.080;2024-01-15T06:58:30;32.10;;;15.50;;
9080;SDS011;13509;50.760;6.080;2024-01-15T07:00:59;31.30;;;15.30;;
9080;SDS011;13509;50.760;6.080;2024-01-15T07:03:28;32.27;;;16.43;;
9080;SDS011;13509;50.760;6.080;2024-01-15T07:05:56;29.23;;;15.50;;
9080;SDS011;13509;50.760;6.080;2024-01-15T07:08:25;37.00;;;16.00;;
9080;SDS011;13509;50.760;6.080;2024-01-15T07:10:54;34.00;;;16.30;;
9080;SDS011;13509;50.760;6.080;2024-01-15T07:13:23;34.03;;;16.83;;
9080;SDS011;13509;50.760;6.080;2024-01-15T07:15:51;31.93;;;16.23;;
9080;SDS011;13509;50.760;6.080;2024-01-15T07:18:20;30.17;;;16.27;;
9080;SDS011;13509;50.760;6.080;2024-01-15T07:20:48;30.53;;;15.87;;
9080;SDS011;13509;50.760;6.080;2024-01-15T07:23:16;31.23;;;14.73;;
9080;SDS011;13509;50.760;6.080;2024-01-15T07:25:45;29.00;;;15.27;;
9080;SDS011;13509;50.760;6.080;2024-01-15T07:28:14;32.20;;;14.23;;
9080;SDS011;13509;50.760;6.080;2024-01-15T07:30:43;30.57;;;14.13;;
9080;SDS011;13509;50.760;6.080;2024-01-15T07:33:11;29.80;;;14.70;;
9080;SDS011;13509;50.760;6.080;2024-01-15T07:35:40;28.80;;;14.80;;
9080;SDS011;13509;50.760;6.080;2024-01-15T07:38:08;25.07;;;14.33;;
9080;SDS011;13509;50.760;6.080;2024-01-15T07:40:38;28.37;;;12.93;;
9080;SDS011;13509;50.760;6.080;2024-01-15T07:43:06;26.10;;;13.63;;
9080;SDS011;13509;50.760;6.080;2024-01-15T07:45:36;22.70;;;13.50;;
9080;SDS011;13509;50.760;6.080;2024-01-15T07:48:07;23.87;;;13.67;;
9080;SDS011;13509;50.760;6.080;2024-01-15T07:50:36;21.43;;;11.77;;
9080;SDS011;13509;50.760;6.080;2024-01-15T07:53:04;26.77;;;12.30;;
9080;SDS011;13509;50.760;6.080;2024-01-15T07:55:32;21.67;;;12.30;;
9080;SDS011;13509;50.760;6.080;2024-01-15T07:58:01;24.07;;;12.40;;
9080;SDS011;13509;50.760;6.080;2024-01-15T08:00:42;20.40;;;11.30;;
9080;SDS011;13509;50.760;6.080;2024-01-15T08:03:11;22.30;;;12.50;;
9080;SDS011;13509;50.760;6.080;2024-01-15T08:05:40;20.40;;;11.53;;
9080;SDS011;13509;50.760;6.080;2024-01-15T08:08:08;23.27;;;10.53;;
9080;SDS011;13509;50.760;6.080;2024-01-15T08:10:36;19.20;;;10.20;;
9080;SDS011;13509;50.760;6.080;2024-01-15T08:13:05;21.03;;;9.80;;
9080;SDS011;13509;50.760;6.080;2024-01-15T08:15:35;19.10;;;9.93;;
9080;SDS011;13509;50.760;6.080;2024-01-15T08:18:05;19.37;;;10.20;;
9080;SDS011;13509;50.760;6.080;2024-01-15T08:20:34;18.27;;;9.67;;
9080;SDS011;13509;50.760;6.080;2024-01-15T08:23:03;18.77;;;9.40;;
9080;SDS011;13509;50.760;6.080;2024-01-15T08:25:31;16.20;;;8.90;;
9080;SDS011;13509;50.760;6.080;2024-01-15T08:27:59;14.50;;;8.00;;
9080;SDS011;13509;50.760;6.080;2024-01-15T08:30:28;16.27;;;8.83;;
9080;SDS011;13509;50.760;6.080;2024-01-15T08:32:56;14.33;;;8.50;;
9080;SDS011;13509;50.760;6.080;2024-01-15T08:35:37;14.70;;;7.37;;
9080;SDS011;13509;50.760;6.080;2024-01-15T08:38:05;16.87;;;7.57;;
9080;SDS011;13509;50.760;6.080;2024-01-15T08:40:34;18.40;;;7.60;;
9080;SDS011;13509;50.760;6.080;2024-01-15T08:43:02;14.07;;;7.33;;
9080;SDS011;13509;50.760;6.080;2024-01-15T08:45:32;11.87;;;7.07;;
9080;SDS011;13509;50.760;6.080;2024-01-15T08:48:01;15.50;;;7.13;;
9080;SDS011;13509;50.760;6.080;2024-01-15T08:50:30;15.10;;;7.90;;
9080;SDS011;13509;50.760;6.080;2024-01-15T08:53:00;13.53;;;7.33;;
9080;SDS011;13509;50.760;6.080;2024-01-15T08:55:29;13.30;;;7.47;;
9080;SDS011;13509;50.760;6.080;2024-01-15T08:57:57;10.20;;;6.60;;
9080;SDS011;13509;50.760;6.080;2024-01-15T09:00:25;14.73;;;6.90;;
9080;SDS011;13509;50.760;6.080;2024-01-15T09:02:54;15.63;;;6.80;;
9080;SDS011;13509;50.760;6.080;2024-01-15T09:05:22;12.27;;;6.73;;
9080;SDS011;13509;50.760;6.080;2024-01-15T09:07:51;13.30;;;7.00;;
9080;SDS011;13509;50.760;6.080;2024-01-15T09:10:21;17.00;;;7.40;;
9080;SDS011;13509;50.760;6.080;2024-01-15T09:12:49;13.83;;;6.97;;
9080;SDS011;13509;50.760;6.080;2024-01-15T09:15:18;11.37;;;6.20;;
9080;SDS011;13509;50.760;6.080;2024-01-15T09:17:46;13.57;;;6.40;;
9080;SDS011;13509;50.760;6.080;2024-01-15T09:20:15;11.03;;;6.70;;
9080;SDS011;13509;50.760;6.080;2024-01-15T09:22:43;9.73;;;6.47;;
9080;SDS011;13509;50.760;6.080;2024-01-15T09:25:12;14.93;;;5.80;;
9080;SDS011;13509;50.760;6.080;2024-01-15T09:27:41;11.67;;;6.30;;
9080;SDS011;13509;50.760;6.080;2024-01-15T09:30:10;15.70;;;6.57;;
9080;SDS011;13509;50.760;6.080;2024-01-15T09:32:39;11.57;;;6.20;;
9080;SDS011;13509;50.760;6.080;2024-01-15T09:35:07;13.53;;;6.17;;
9080;SDS011;13509;50.760;6.080;2024-01-15T09:37:36;12.83;;;6.90;;
9080;SDS011;13509;50.760;6.080;2024-01-15T09:40:13;8.63;;;5.97;;
9080;SDS011;13509;50.760;6.080;2024-01-15T09:42:44;12.27;;;6.20;;
9080;SDS011;13509;50.760;6.080;2024-01-15T09:45:13;9.13;;;6.07;;
9080;SDS011;13509;50.760;6.080;2024-01-15T09:47:41;11.13;;;6.27;;
9080;SDS011;13509;50.760;6.080;2024-01-15T09:50:12;10.00;;;6.20;;
9080;SDS011;13509;50.760;6.080;2024-01-15T09:52:42;9.80;;;5.97;;
9080;SDS011;13509;50.760;6.080;2024-01-15T09:55:11;12.03;;;5.27;;
9080;SDS011;13509;50.760;6.080;2024-01-15T09:57:41;10.80;;;6.07;;
9080;SDS011;13509;50.760;6.080;2024-01-15T10:00:11;15.27;;;6.87;;
9080;SDS011;13509;50.760;6.080;2024-01-15T10:02:41;9.50;;;6.23;;
9080;SDS011;13509;50.760;6.080;2024-01-15T10:05:09;13.13;;;7.20;;
9080;SDS011;13509;50.760;6.080;2024-01-15T10:07:37;13.37;;;6.33;;
9080;SDS011;13509;50.760;6.080;2024-01-15T10:10:06;12.27;;;6.67;;
9080;SDS011;13509;50.760;6.080;2024-01-15T10:12:35;13.90;;;6.17;;
9080;SDS011;13509;50.760;6.080;2024-01-15T10:15:04;11.20;;;6.77;;
9080;SDS011;13509;50.760;6.080;2024-01-15T10:17:35;11.47;;;6.60;;
9080;SDS011;13509;50.760;6.080;2024-01-15T10:20:07;10.43;;;6.10;;
9080;SDS011;13509;50.760;6.080;2024-01-15T10:22:38;11.90;;;6.63;;
9080;SDS011;13509;50.760;6.080;2024-01-15T10:25:09;16.57;;;6.90;;
9080;SDS011;13509;50.760;6.080;2024-01-15T10:27:37;12.63;;;6.87;;
9080;SDS011;13509;50.760;6.080;2024-01-15T10:30:07;14.17;;;6.87;;
9080;SDS011;13509;50.760;6.080;2024-01-15T10:32:37;13.53;;;6.40;;
9080;SDS011;13509;50.760;6.080;2024-01-15T10:35:07;14.93;;;6.77;;
9080;SDS011;13509;50.760;6.080;2024-01-15T10:37:37;13.47;;;6.97;;
9080;SDS011;13509;50.760;6.080;2024-01-15T10:40:05;12.60;;;6.50;;
9080;SDS011;13509;50.760;6.080;2024-01-15T10:42:34;10.90;;;6.07;;
9080;SDS011;13509;50.760;6.080;2024-01-15T10:45:02;11.17;;;5.03;;
9080;SDS011;13509;50.760;6.080;2024-01-15T10:47:31;13.67;;;5.53;;
9080;SDS011;13509;50.760;6.080;2024-01-15T10:50:01;9.83;;;5.77;;
9080;SDS011;13509;50.760;6.080;2024-01-15T10:52:29;12.70;;;5.87;;
9080;SDS011;13509;50.760;6.080;2024-01-15T10:54:58;10.17;;;5.13;;
9080;SDS011;13509;50.760;6.080;2024-01-15T10:57:36;13.03;;;5.10;;
9080;SDS011;13509;50.760;6.080;2024-01-15T11:00:05;8.93;;;4.23;;
9080;SDS011;13509;50.760;6.080;2024-01-15T11:02:35;8.40;;;4.20;;
9080;SDS011;13509;50.760;6.080;2024-01-15T11:05:05;8.30;;;4.03;;
9080;SDS011;13509;50.760;6.080;2024-01-15T11:07:34;10.37;;;4.27;;
9080;SDS011;13509;50.760;6.080;2024-01-15T11:10:03;6.93;;;4.20;;
9080;SDS011;13509;50.760;6.080;2024-01-15T11:12:31;12.70;;;4.10;;
9080;SDS011;13509;50.760;6.080;2024-01-15T11:15:03;10.53;;;3.70;;
9080;SDS011;13509;50.760;6.080;2024-01-15T11:20:20;8.23;;;3.53;;
9080;SDS011;13509;50.760;6.080;2024-01-15T11:22:48;7.20;;;3.87;;
9080;SDS011;13509;50.760;6.080;2024-01-15T11:25:18;11.33;;;3.83;;
9080;SDS011;13509;50.760;6.080;2024-01-15T11:27:47;8.77;;;3.73;;
9080;SDS011;13509;50.760;6.080;2024-01-15T11:30:18;9.83;;;3.50;;
9080;SDS011;13509;50.760;6.080;2024-01-15T11:32:46;9.17;;;3.43;;
9080;SDS011;13509;50.760;6.080;2024-01-15T11:35:15;15.37;;;3.23;;
9080;SDS011;13509;50.760;6.080;2024-01-15T11:37:58;7.23;;;3.13;;
9080;SDS011;13509;50.760;6.080;2024-01-15T11:40:37;8.10;;;3.10;;
9080;SDS011;13509;50.760;6.080;2024-01-15T11:43:08;8.60;;;3.77;;
9080;SDS011;13509;50.760;6.080;2024-01-15T11:45:39;7.47;;;2.63;;
9080;SDS011;13509;50.760;6.080;2024-01-15T11:48:12;7.73;;;2.90;;
9080;SDS011;13509;50.760;6.080;2024-01-15T11:50:42;6.53;;;3.17;;
9080;SDS011;13509;50.760;6.080;2024-01-15T11:53:16;10.87;;;3.63;;
9080;SDS011;13509;50.760;6.080;2024-01-15T11:55:45;9.40;;;3.30;;
9080;SDS011;13509;50.760;6.080;2024-01-15T11:58:15;9.63;;;3.40;;
9080;SDS011;13509;50.760;6.080;2024-01-15T12:00:44;8.87;;;2.50;;
9080;SDS011;13509;50.760;6.080;2024-01-15T12:03:12;7.70;;;3.13;;
9080;SDS011;13509;50.760;6.080;2024-01-15T12:05:41;6.57;;;2.93;;
9080;SDS011;13509;50.760;6.080;2024-01-15T12:08:10;8.10;;;2.77;;
9080;SDS011;13509;50.760;6.080;2024-01-15T12:10:40;5.40;;;2.40;;
9080;SDS011;13509;50.760;6.080;2024-01-15T12:13:10;5.90;;;2.27;;
9080;SDS011;13509;50.760;6.080;2024-01-15T12:15:40;6.70;;;2.60;;
9080;SDS011;13509;50.760;6.080;2024-01-15T12:18:10;7.97;;;2.57;;
9080;SDS011;13509;50.760;6.080;2024-01-15T12:20:39;4.80;;;1.87;;
9080;SDS011;13509;50.760;6.080;2024-01-15T12:23:09;5.83;;;2.80;;
9080;SDS011;13509;50.760;6.080;2024-01-15T12:25:37;7.10;;;2.57;;
9080;SDS011;13509;50.760;6.080;2024-01-15T12:28:07;6.67;;;2.13;;
9080;SDS011;13509;50.760;6.080;2024-01-15T12:30:36;8.23;;;2.57;;
9080;SDS011;13509;50.760;6.080;2024-01-15T12:33:05;7.37;;;2.30;;
9080;SDS011;13509;50.760;6.080;2024-01-15T12:35:35;9.60;;;2.40;;
9080;SDS011;13509;50.760;6.080;2024-01-15T12:38:04;7.13;;;3.10;;
9080;SDS011;13509;50.760;6.080;2024-01-15T12:40:33;5.87;;;2.40;;
9080;SDS011;13509;50.760;6.080;2024-01-15T12:43:03;8.40;;;2.30;;
9080;SDS011;13509;50.760;6.080;2024-01-15T12:45:33;7.00;;;2.70;;
9080;SDS011;13509;50.760;6.080;2024-01-15T12:48:04;8.50;;;2.40;;
9080;SDS011;13509;50.760;6.080;2024-01-15T12:50:33;6.73;;;2.13;;
9080;SDS011;13509;50.760;6.080;2024-01-15T12:53:02;8.53;;;2.87;;
9080;SDS011;13509;50.760;6.080;2024-01-15T12:55:30;6.33;;;2.47;;
9080;SDS011;13509;50.760;6.080;2024-01-15T12:58:00;7.27;;;2.47;;
9080;SDS011;13509;50.760;6.080;2024-01-15T13:00:29;4.93;;;2.17;;
9080;SDS011;13509;50.760;6.080;2024-01-15T13:02:58;6.57;;;2.60;;
9080;SDS011;13509;50.760;6.080;2024-01-15T13:05:30;8.43;;;2.50;;
9080;SDS011;13509;50.760;6.080;2024-01-15T13:07:59;5.33;;;2.50;;
9080;SDS011;13509;50.760;6.080;2024-01-15T13:10:28;6.67;;;2.57;;
9080;SDS011;13509;50.760;6.080;2024-01-15T13:12:57;4.53;;;2.53;;
9080;SDS011;13509;50.760;6.080;2024-01-15T13:15:25;5.77;;;3.30;;
9080;SDS011;13509;50.760;6.080;2024-01-15T13:17:54;3.63;;;2.67;;
9080;SDS011;13509;50.760;6.080;2024-01-15T13:20:23;6.40;;;2.50;;
9080;SDS011;13509;50.760;6.080;2024-01-15T13:22:52;4.10;;;2.50;;
9080;SDS011;13509;50.760;6.080;2024-01-15T13:25:21;4.67;;;2.03;;
9080;SDS011;13509;50.760;6.080;2024-01-15T13:27:51;6.17;;;2.40;;
9080;SDS011;13509;50.760;6.080;2024-01-15T13:30:21;2.53;;;2.33;;
9080;SDS011;13509;50.760;6.080;2024-01-15T13:32:50;3.63;;;2.50;;
9080;SDS011;13509;50.760;6.080;2024-01-15T13:35:18;4.67;;;2.60;;
9080;SDS011;13509;50.760;6.080;2024-01-15T13:37:48;3.60;;;2.50;;
9080;SDS011;13509;50.760;6.080;2024-01-15T13:40:16;3.77;;;2.37;;
9080;SDS011;13509;50.760;6.080;2024-01-15T13:42:46;3.17;;;2.10;;
9080;SDS011;13509;50.760;6.080;2024-01-15T13:45:15;6.90;;;2.40;;
9080;SDS011;13509;50.760;6.080;2024-01-15T13:47:44;3.27;;;1.83;;
9080;SDS011;13509;50.760;6.080;2024-01-15T13:50:12;2.37;;;2.00;;
9080;SDS011;13509;50.760;6.080;2024-01-15T13:52:41;4.90;;;2.00;;
9080;SDS011;13509;50.760;6.080;2024-01-15T13:55:10;3.57;;;2.20;;
9080;SDS011;13509;50.760;6.080;2024-01-15T13:57:39;5.73;;;2.70;;
9080;SDS011;13509;50.760;6.080;2024-01-15T14:00:08;6.63;;;2.37;;
9080;SDS011;13509;50.760;6.080;2024-01-15T14:02:39;3.80;;;2.30;;
9080;SDS011;13509;50.760;6.080;2024-01-15T14:05:08;3.07;;;2.20;;
9080;SDS011;13509;50.760;6.080;2024-01-15T14:07:39;5.00;;;2.60;;
9080;SDS011;13509;50.760;6.080;2024-01-15T14:10:08;3.90;;;2.10;;
9080;SDS011;13509;50.760;6.080;2024-01-15T14:12:37;3.40;;;2.20;;
9080;SDS011;13509;50.760;6.080;2024-01-15T14:15:07;4.80;;;2.00;;
9080;SDS011;13509;50.760;6.080;2024-01-15T14:17:35;3.47;;;2.20;;
9080;SDS011;13509;50.760;6.080;2024-01-15T14:20:04;5.60;;;2.00;;
9080;SDS011;13509;50.760;6.080;2024-01-15T14:22:35;4.00;;;1.97;;
9080;SDS011;13509;50.760;6.080;2024-01-15T14:25:04;4.07;;;1.90;;
9080;SDS011;13509;50.760;6.080;2024-01-15T14:27:32;7.57;;;2.00;;
9080;SDS011;13509;50.760;6.080;2024-01-15T14:30:02;2.20;;;2.00;;
9080;SDS011;13509;50.760;6.080;2024-01-15T14:32:32;4.90;;;1.90;;
9080;SDS011;13509;50.760;6.080;2024-01-15T14:35:00;2.43;;;1.63;;
9080;SDS011;13509;50.760;6.080;2024-01-15T14:37:30;4.90;;;1.80;;
9080;SDS011;13509;50.760;6.080;2024-01-15T14:39:58;2.80;;;2.10;;
9080;SDS011;13509;50.760;6.080;2024-01-15T14:42:27;4.47;;;1.83;;
9080;SDS011;13509;50.760;6.080;2024-01-15T14:44:55;4.20;;;1.70;;
9080;SDS011;13509;50.760;6.080;2024-01-15T14:47:25;2.93;;;1.90;;
9080;SDS011;13509;50.760;6.080;2024-01-15T14:49:54;3.37;;;1.73;;
9080;SDS011;13509;50.760;6.080;2024-01-15T14:52:23;3.50;;;1.83;;
9080;SDS011;13509;50.760;6.080;2024-01-15T14:54:51;2.53;;;1.87;;
9080;SDS011;13509;50.760;6.080;2024-01-15T14:57:19;2.77;;;2.10;;